Haro Strait: Past 24 Hour Conditions

 

Sentry Shoal - 46131

09:00 PM PDT 21 October 2017Buoy position: 49.92N 125.0W
Disclaimer

This table is a summary of hourly weather conditions for the past 24 hours.
Please note that these observations might not always be representative of weather conditions over their associated marine area.

Date / Time
(PDT)
Wind(knots) Wave height(m) Wave period(s) Pressure(kPa) Air tempC) Water tempC)
21 October 2017
21:00 SE 10 gust 12 1.7 6.0 99.8 11 10
20:00 SE 10 gust 16 1.8 6.0 99.6 10 10
19:00 ESE 23 gust 27 1.7 6.0 99.5 9 10
18:00 ESE 23 gust 27 1.7 6.0 99.7 9 10
17:00 ESE 19 gust 25 1.7 6.0 99.8 9 10
16:00 ESE 21 gust 27 1.7 6.0 100.0 9 10
15:00 ESE 18 gust 19 1.5 6.0 100.1 9 10
14:00 ESE 19 gust 21 1.5 5.0 100.2 9 10
13:00 ESE 18 gust 21 1.3 6.0 100.3 9 10
12:00 ESE 19 gust 25 1.4 5.0 100.4 9 10
11:00 ESE 25 gust 29 1.4 5.0 100.4 9 10
10:00 ESE 23 gust 27 1.2 5.0 100.4 9 10
9:00 ESE 21 gust 23 1.3 5.0 100.5 9 10
8:00 ESE 18 gust 21 1.4 5.0 100.5 9 10
7:00 SE 21 gust 27 1.3 4.0 100.5 9 10
6:00 SE 23 gust 31 1.2 4.0 100.6 10 10
5:00 SE 23 gust 27 1.0 4.0 100.7 10 11
4:00 SE 21 gust 27 0.7 3.0 100.8 10 11
3:00 ESE 19 gust 23 0.6 3.0 100.9 10 11
2:00 SE 16 gust 19 0.5 3.0 100.9 10 11
1:00 SE 16 gust 19 0.4 3.0 101.0 10 11
0:00 SSE 12 gust 14 0.3 3.0 101.0 10 11
20 October 2017
23:00 ESE 12 gust 16 0.2 2.0 101.0 10 11
22:00 ESE 10 gust 12 0.1 5.0 101.0 10 11
21:00 SE 4 gust 6 0.1 5.0 101.0 10 11

Zoom-in to make a selection

Map of Pacific - South Coast marine weather areas Tsawwassen Ferry Terminal South Nomad - 46036 Sentry Shoal - 46131 South Brooks - 46132 Halibut Bank - 46146 South Moresby - 46147 South Hecate Strait - 46185 West Sea Otter - 46204 La Perouse Bank - 46206 East Dellwood - 46207 Discovery Island Esquimalt Harbour Kelp Reefs Malahat Race Rocks Lightstation Saturna Island Sheringham Point University of Victoria Victoria Gonzales Victoria Int'l Airport Ballenas Islands Campbell River Airport Comox Airport Entrance Island Fanny Island Nanaimo Airport Port Hardy Airport Sisters Islets Estevan Point Sartine Island Solander Island Tofino Airport Grief Point Powell River Airport Sechelt Cape St.James Bella Bella Airport Bella Coola Airport Cathedral Point Herbert Island Point Atkinson Sand Heads Lightstation Vancouver Harbour Vancouver Int'l Airport West Vancouver Port Alberni Howe Sound - Pam Rocks Squamish Airport
Legend:
buoy Buoy
land station Land Station

Pacific - South Coast Area

Another Region

What we are doing

Features

Summer 2017: Significant weather across Canada

By analyzing weather events, ECCC is collecting more information as to how our climate is changing.

Date modified: